ETSN

Details ICAO ETSN
Name NEUBURG
Region Germany - Military
Timezone Europe/Berlin (UTC+1.0)
Plans Departing 4
Arriving 8
Stats Elevation 1,249 ft / 381 m (AMSL)
Location 48.711000° 11.211583°
Runways 1
Magnetic Variation 3.032° E
Sunrise 2017-12-18 07:04:52 UTC / 2017-12-18 08:04:52 Local
Sunset 2017-12-18 15:21:20 UTC / 2017-12-18 16:21:20 Local
Advertisement - Login to hide

Runways

ID Width Length Bearing (true) Bearing (mag) Surface Threshold Offset Overrun Length
09 98 ft / 30 m 7,987 ft / 2,435 m 90.86° 87.83° Asphalt 0 ft / 0 m 902 ft / 275 m
27 98 ft / 30 m 7,987 ft / 2,435 m 270.89° 267.86° Asphalt 0 ft / 0 m 951 ft / 290 m

Map

Weather


0- 5 10 15 20 25 30 35+ Temperature / ° C

Clouds and Precipitation
Forecast for 2017-12-19 00:00 UTC. Updated 2 hours ago

Ground ~20,000 ft ~40,000 ft Winds

METAR

ETSN 182020Z 02002KT 9999 BKN037 M00/M01 Q1027 BLU

TAF

Not found

Frequencies

Tower 122.10 MHz DONAU TWR
Approach 123.30 MHz DONAU RADAR
Tower 129.85 MHz DONAU TWR
Approach 130.15 MHz DONAU RADAR
Warning: Do not use this data for real-world aviation or navigation. No guarantee of current accuracy is given.